createdAt,value
2023-03-18T00:01:39.480Z,10.50
2023-03-18T00:04:07.062Z,10.27
2023-03-18T00:06:38.438Z,10.70
2023-03-18T00:09:06.276Z,10.55
2023-03-18T00:11:33.528Z,10.73
2023-03-18T00:14:00.534Z,10.40
2023-03-18T00:16:27.849Z,10.38
2023-03-18T00:18:54.993Z,9.75
2023-03-18T00:21:23.513Z,10.98
2023-03-18T00:23:56.403Z,10.73
2023-03-18T00:26:28.074Z,10.13
2023-03-18T00:28:59.404Z,10.48
2023-03-18T00:31:27.838Z,10.43
2023-03-18T00:33:55.310Z,10.85
2023-03-18T00:36:26.405Z,10.50
2023-03-18T00:38:59.654Z,14.40
2023-03-18T00:41:28.338Z,13.25
2023-03-18T00:43:57.053Z,13.80
2023-03-18T00:46:30.952Z,14.60
2023-03-18T00:49:00.745Z,14.45
2023-03-18T00:51:31.504Z,12.60
2023-03-18T00:54:02.401Z,12.63
2023-03-18T00:56:32.334Z,11.93
2023-03-18T00:59:00.431Z,11.32
2023-03-18T01:01:28.351Z,10.57
2023-03-18T01:03:55.955Z,10.07
2023-03-18T01:06:26.502Z,9.98
2023-03-18T01:08:53.871Z,10.25
2023-03-18T01:11:21.549Z,9.93
2023-03-18T01:13:49.394Z,10.30
2023-03-18T01:16:17.993Z,9.65
2023-03-18T01:18:48.244Z,9.00
2023-03-18T01:21:15.489Z,10.18
2023-03-18T01:23:49.351Z,9.68
2023-03-18T01:26:16.958Z,9.90
2023-03-18T01:28:45.867Z,9.38
2023-03-18T01:31:13.972Z,8.90
2023-03-18T01:33:42.586Z,9.23
2023-03-18T01:36:10.729Z,9.68
2023-03-18T01:38:41.209Z,9.50
2023-03-18T01:41:13.288Z,9.25
2023-03-18T01:43:42.984Z,10.48
2023-03-18T01:46:39.066Z,10.32
2023-03-18T01:49:12.725Z,10.02
2023-03-18T01:51:43.851Z,9.20
2023-03-18T01:54:12.955Z,9.85
2023-03-18T01:56:42.936Z,10.15
2023-03-18T01:59:14.092Z,10.30
2023-03-18T02:01:53.211Z,9.60
2023-03-18T02:04:25.903Z,10.32
2023-03-18T02:06:53.209Z,9.25
2023-03-18T02:09:22.810Z,9.40
2023-03-18T02:11:51.882Z,10.73
2023-03-18T02:14:23.818Z,9.52
2023-03-18T02:17:19.335Z,9.70
2023-03-18T02:19:58.576Z,10.50
2023-03-18T02:22:41.463Z,10.85
2023-03-18T02:25:32.966Z,11.13
2023-03-18T02:28:04.167Z,10.00
2023-03-18T02:30:38.370Z,10.52
2023-03-18T02:33:11.399Z,10.05
2023-03-18T02:35:40.210Z,10.02
2023-03-18T02:38:07.237Z,9.10
2023-03-18T02:40:37.699Z,9.52
2023-03-18T02:43:31.673Z,9.65
2023-03-18T02:46:20.625Z,9.27
2023-03-18T02:48:49.060Z,9.93
2023-03-18T02:51:17.705Z,9.00
2023-03-18T02:53:46.124Z,9.10
2023-03-18T02:56:13.595Z,9.20
2023-03-18T02:58:42.538Z,9.68
2023-03-18T03:01:16.092Z,9.63
2023-03-18T03:03:44.102Z,9.27
2023-03-18T03:06:13.281Z,8.95
2023-03-18T03:08:41.603Z,9.25
2023-03-18T03:11:09.324Z,9.55
2023-03-18T03:13:42.640Z,9.25
2023-03-18T03:16:13.226Z,9.63
2023-03-18T03:18:40.712Z,9.95
2023-03-18T03:21:08.894Z,10.18
2023-03-18T03:23:36.785Z,10.07
2023-03-18T03:26:05.298Z,9.73
2023-03-18T03:28:33.523Z,10.05
2023-03-18T03:31:01.354Z,9.93
2023-03-18T03:33:29.156Z,9.77
2023-03-18T03:35:58.305Z,9.50
2023-03-18T03:38:26.605Z,9.68
2023-03-18T03:40:55.262Z,9.98
2023-03-18T03:43:34.166Z,10.63
2023-03-18T03:46:01.377Z,9.57
2023-03-18T03:48:28.582Z,9.85
2023-03-18T03:50:56.813Z,9.65
2023-03-18T03:53:25.118Z,10.63
2023-03-18T03:55:52.977Z,11.00
2023-03-18T03:58:20.055Z,10.25
2023-03-18T04:00:48.077Z,10.13
2023-03-18T04:03:15.082Z,10.40
2023-03-18T04:05:43.343Z,10.25
2023-03-18T04:08:11.031Z,10.48
2023-03-18T04:10:39.443Z,10.85
2023-03-18T04:13:10.281Z,10.32
2023-03-18T04:15:37.961Z,10.38
2023-03-18T04:20:38.998Z,10.77
2023-03-18T04:23:15.725Z,10.02
2023-03-18T04:25:43.267Z,10.38
2023-03-18T04:28:10.659Z,10.07
2023-03-18T04:30:38.108Z,9.95
2023-03-18T04:33:10.393Z,9.80
2023-03-18T04:35:42.924Z,10.05
2023-03-18T04:38:12.232Z,10.70
2023-03-18T04:40:39.416Z,9.77
2023-03-18T04:43:06.595Z,10.32
2023-03-18T04:45:36.743Z,10.48
2023-03-18T04:48:04.353Z,9.85
2023-03-18T04:50:36.810Z,10.50
2023-03-18T04:53:06.569Z,9.98
2023-03-18T04:55:34.243Z,10.77
2023-03-18T04:58:04.659Z,10.98
2023-03-18T05:00:37.472Z,10.70
2023-03-18T05:03:17.030Z,10.48
2023-03-18T05:05:44.107Z,10.80
2023-03-18T05:08:16.915Z,10.75
2023-03-18T05:10:47.746Z,10.95
2023-03-18T05:13:14.858Z,11.15
2023-03-18T05:15:42.840Z,10.82
2023-03-18T05:18:09.957Z,10.90
2023-03-18T05:20:37.294Z,11.18
2023-03-18T05:23:06.008Z,10.70
2023-03-18T05:25:48.063Z,11.70
2023-03-18T05:28:15.292Z,7.63
2023-03-18T05:30:50.044Z,10.80
2023-03-18T05:33:21.411Z,10.65
2023-03-18T05:35:53.917Z,11.27
2023-03-18T05:38:26.441Z,11.05
2023-03-18T05:41:01.480Z,11.15
2023-03-18T05:43:38.702Z,11.25
2023-03-18T05:46:08.066Z,10.52
2023-03-18T05:48:53.601Z,11.02
2023-03-18T05:51:22.454Z,10.90
2023-03-18T05:53:49.772Z,11.70
2023-03-18T05:56:24.862Z,10.95
2023-03-18T05:58:59.224Z,11.18
2023-03-18T06:01:44.792Z,11.07
2023-03-18T06:04:12.007Z,10.93
2023-03-18T06:06:42.231Z,11.73
2023-03-18T06:09:21.058Z,11.35
2023-03-18T06:11:48.663Z,11.23
2023-03-18T06:14:15.764Z,12.13
2023-03-18T06:16:43.673Z,11.75
2023-03-18T06:19:15.692Z,11.30
2023-03-18T06:21:51.556Z,11.30
2023-03-18T06:24:20.536Z,10.95
2023-03-18T06:26:49.298Z,12.45
2023-03-18T06:29:22.243Z,12.88
2023-03-18T06:31:50.179Z,13.43
2023-03-18T06:34:22.551Z,11.75
2023-03-18T06:36:49.601Z,11.80
2023-03-18T06:39:20.107Z,11.65
2023-03-18T06:41:47.249Z,11.73
2023-03-18T06:44:28.402Z,11.55
2023-03-18T06:47:08.240Z,11.82
2023-03-18T06:52:27.611Z,12.80
2023-03-18T06:55:03.513Z,11.68
2023-03-18T06:57:32.808Z,12.25
2023-03-18T07:00:00.106Z,12.60
2023-03-18T07:02:27.592Z,12.20
2023-03-18T07:04:57.430Z,12.38
2023-03-18T07:07:24.757Z,12.05
2023-03-18T07:09:53.114Z,12.13
2023-03-18T07:12:20.194Z,12.38
2023-03-18T07:14:47.208Z,12.88
2023-03-18T07:17:14.864Z,12.60
2023-03-18T07:19:42.041Z,12.38
2023-03-18T07:22:09.202Z,12.63
2023-03-18T07:24:37.721Z,12.30
2023-03-18T07:27:04.879Z,11.55
2023-03-18T07:29:33.850Z,11.23
2023-03-18T07:32:03.673Z,11.45
2023-03-18T07:34:34.974Z,11.32
2023-03-18T07:37:02.496Z,12.63
2023-03-18T07:39:29.407Z,12.70
2023-03-18T07:41:56.437Z,12.32
2023-03-18T07:44:29.517Z,12.20
2023-03-18T07:46:56.546Z,12.68
2023-03-18T07:49:23.972Z,12.65
2023-03-18T07:51:51.068Z,11.90
2023-03-18T07:54:18.748Z,12.30
2023-03-18T07:56:45.890Z,13.00
2023-03-18T07:59:13.019Z,13.68
2023-03-18T08:01:40.088Z,12.52
2023-03-18T08:04:07.795Z,12.00
2023-03-18T08:06:35.340Z,12.05
2023-03-18T08:09:03.678Z,12.23
2023-03-18T08:11:33.780Z,12.18
2023-03-18T08:14:01.592Z,11.70
2023-03-18T08:16:28.677Z,11.73
2023-03-18T08:18:56.198Z,12.85
2023-03-18T08:21:23.244Z,12.90
2023-03-18T08:23:50.248Z,12.20
2023-03-18T08:26:17.292Z,13.35
2023-03-18T08:28:44.416Z,12.90
2023-03-18T08:31:12.257Z,12.98
2023-03-18T08:33:40.727Z,13.10
2023-03-18T08:36:09.039Z,13.40
2023-03-18T08:38:36.374Z,13.73
2023-03-18T08:41:04.103Z,13.27
2023-03-18T08:43:31.371Z,13.88
2023-03-18T08:45:58.768Z,13.77
2023-03-18T08:48:26.163Z,13.30
2023-03-18T08:50:53.860Z,14.32
2023-03-18T08:53:21.098Z,14.50
2023-03-18T08:55:48.695Z,15.23
2023-03-18T08:58:18.946Z,13.73
2023-03-18T09:00:58.522Z,14.77
2023-03-18T09:03:26.029Z,14.90
2023-03-18T09:05:55.664Z,15.45
2023-03-18T09:08:23.710Z,15.30
2023-03-18T09:10:59.526Z,15.77
2023-03-18T09:13:27.596Z,15.02
2023-03-18T09:15:54.790Z,15.73
2023-03-18T09:18:45.975Z,15.07
2023-03-18T09:21:18.631Z,15.63
2023-03-18T09:23:46.371Z,15.13
2023-03-18T09:26:13.556Z,14.85
2023-03-18T09:28:43.779Z,15.45
2023-03-18T09:31:20.766Z,14.32
2023-03-18T09:33:48.577Z,14.35
2023-03-18T09:36:15.964Z,14.85
2023-03-18T09:38:43.989Z,14.55
2023-03-18T09:41:11.124Z,15.02
2023-03-18T09:44:08.554Z,15.00
2023-03-18T09:46:47.547Z,15.23
2023-03-18T09:49:20.323Z,14.95
2023-03-18T09:52:28.924Z,15.90
2023-03-18T09:55:04.986Z,15.32
2023-03-18T09:57:42.546Z,15.45
2023-03-18T10:00:17.248Z,14.77
2023-03-18T10:03:06.333Z,14.77
2023-03-18T10:05:41.098Z,15.88
2023-03-18T10:09:01.266Z,15.05
2023-03-18T10:11:54.158Z,15.75
2023-03-18T10:14:27.569Z,15.65
2023-03-18T10:17:32.957Z,15.55
2023-03-18T10:20:04.625Z,15.77
2023-03-18T10:22:47.454Z,15.52
2023-03-18T10:30:15.144Z,16.23
2023-03-18T10:36:28.483Z,16.83
2023-03-18T10:40:25.758Z,17.00
2023-03-18T10:42:56.436Z,17.05
2023-03-18T10:49:19.855Z,15.85
2023-03-18T10:54:50.747Z,17.20
2023-03-18T10:57:23.560Z,16.85
2023-03-18T10:59:52.310Z,17.60
2023-03-18T11:02:49.859Z,17.02
2023-03-18T11:05:30.514Z,18.13
2023-03-18T11:08:42.534Z,17.55
2023-03-18T11:11:20.228Z,17.70
2023-03-18T11:17:53.541Z,17.25
2023-03-18T11:20:47.576Z,12.52
2023-03-18T11:23:36.213Z,17.75
2023-03-18T11:26:08.235Z,18.20
2023-03-18T11:35:32.932Z,19.08
2023-03-18T11:38:04.473Z,19.63
2023-03-18T11:40:36.038Z,18.58
2023-03-18T11:46:58.944Z,19.98
2023-03-18T11:49:28.572Z,20.30
2023-03-18T11:52:40.027Z,20.42
2023-03-18T11:55:19.752Z,19.27
2023-03-18T11:57:56.134Z,19.80
2023-03-18T12:00:38.476Z,19.73
2023-03-18T12:03:33.141Z,20.17
2023-03-18T12:06:45.255Z,20.50
2023-03-18T12:09:29.380Z,20.08
2023-03-18T12:12:06.863Z,20.60
2023-03-18T12:14:42.618Z,21.95
2023-03-18T12:17:23.650Z,21.55
2023-03-18T12:19:53.423Z,21.60
2023-03-18T12:22:23.586Z,21.50
2023-03-18T12:25:14.306Z,21.23
2023-03-18T12:28:08.922Z,19.92
2023-03-18T12:30:59.926Z,22.00
2023-03-18T12:33:27.108Z,20.33
2023-03-18T12:36:24.015Z,21.27
2023-03-18T12:38:54.247Z,21.42
2023-03-18T12:41:46.868Z,21.05
2023-03-18T12:44:45.796Z,22.08
2023-03-18T12:47:19.062Z,20.80
2023-03-18T12:50:01.069Z,21.67
2023-03-18T12:52:31.805Z,21.52
2023-03-18T12:55:15.015Z,22.30
2023-03-18T12:58:03.164Z,21.50
2023-03-18T13:00:51.332Z,21.42
2023-03-18T13:03:33.034Z,20.92
2023-03-18T13:06:04.687Z,22.73
2023-03-18T13:11:40.385Z,20.60
2023-03-18T13:14:21.856Z,20.77
2023-03-18T13:16:50.440Z,21.73
2023-03-18T13:19:18.567Z,21.00
2023-03-18T13:21:55.280Z,22.00
2023-03-18T13:24:42.168Z,22.08
2023-03-18T13:27:39.384Z,22.33
2023-03-18T13:30:31.503Z,21.92
2023-03-18T13:32:58.749Z,21.65
2023-03-18T13:35:31.200Z,23.33
2023-03-18T13:38:01.251Z,23.35
2023-03-18T13:40:45.358Z,22.10
2023-03-18T13:43:17.554Z,22.13
2023-03-18T13:45:51.526Z,22.35
2023-03-18T13:48:49.199Z,23.58
2023-03-18T13:51:41.117Z,22.58
2023-03-18T13:54:21.572Z,22.50
2023-03-18T13:56:58.122Z,23.55
2023-03-18T13:59:34.314Z,22.85
2023-03-18T14:02:24.477Z,22.70
2023-03-18T14:04:52.345Z,22.75
2023-03-18T14:07:23.714Z,22.85
2023-03-18T14:10:17.933Z,23.63
2023-03-18T14:12:47.531Z,23.38
2023-03-18T14:15:15.780Z,23.30
2023-03-18T14:17:49.517Z,22.30
2023-03-18T14:20:17.761Z,22.83
2023-03-18T14:23:28.821Z,23.85
2023-03-18T14:26:05.239Z,22.33
2023-03-18T14:28:45.921Z,23.83
2023-03-18T14:31:38.581Z,22.67
2023-03-18T14:34:24.567Z,22.10
2023-03-18T14:36:54.494Z,23.33
2023-03-18T14:39:36.118Z,21.95
2023-03-18T14:42:10.649Z,22.45
2023-03-18T14:44:47.338Z,22.27
2023-03-18T14:47:35.607Z,22.85
2023-03-18T14:50:14.503Z,22.95
2023-03-18T14:52:44.948Z,23.15
2023-03-18T14:55:20.886Z,22.85
2023-03-18T14:57:48.014Z,23.65
2023-03-18T15:00:22.374Z,22.92
2023-03-18T15:03:00.684Z,22.52
2023-03-18T15:05:36.881Z,23.02
2023-03-18T15:08:09.546Z,22.88
2023-03-18T15:10:37.557Z,22.40
2023-03-18T15:13:13.035Z,22.40
2023-03-18T15:15:41.588Z,22.40
2023-03-18T15:18:28.851Z,23.40
2023-03-18T15:21:08.956Z,23.40
2023-03-18T15:23:45.074Z,23.70
2023-03-18T15:26:22.438Z,21.75
2023-03-18T15:28:54.615Z,21.63
2023-03-18T15:31:30.546Z,22.95
2023-03-18T15:34:21.004Z,23.02
2023-03-18T15:36:56.992Z,23.95
2023-03-18T15:39:36.853Z,23.15
2023-03-18T15:42:14.298Z,24.10
2023-03-18T15:44:42.977Z,23.23
2023-03-18T15:47:32.184Z,22.77
2023-03-18T15:50:20.675Z,24.05
2023-03-18T15:52:48.468Z,23.67
2023-03-18T15:55:53.001Z,23.40
2023-03-18T15:58:24.725Z,24.48
2023-03-18T16:03:23.748Z,23.27
2023-03-18T16:05:54.667Z,24.60
2023-03-18T16:08:22.983Z,23.57
2023-03-18T16:10:57.635Z,24.05
2023-03-18T16:13:43.500Z,23.30
2023-03-18T16:16:21.266Z,24.65
2023-03-18T16:18:48.998Z,24.10
2023-03-18T16:21:16.030Z,23.85
2023-03-18T16:23:43.127Z,24.05
2023-03-18T16:26:19.343Z,23.88
2023-03-18T16:28:52.575Z,23.00
2023-03-18T16:31:19.698Z,23.08
2023-03-18T16:33:47.475Z,23.38
2023-03-18T16:36:25.616Z,24.08
2023-03-18T16:38:52.672Z,22.75
2023-03-18T16:41:19.763Z,24.05
2023-03-18T16:43:51.359Z,23.73
2023-03-18T16:46:18.739Z,24.15
2023-03-18T16:48:49.456Z,23.23
2023-03-18T16:51:16.906Z,23.60
2023-03-18T16:53:43.877Z,23.13
2023-03-18T16:56:22.142Z,23.83
2023-03-18T16:58:50.308Z,23.77
2023-03-18T17:01:19.449Z,22.45
2023-03-18T17:03:46.666Z,22.33
2023-03-18T17:06:14.681Z,23.55
2023-03-18T17:08:42.066Z,23.83
2023-03-18T17:11:16.128Z,24.17
2023-03-18T17:13:43.029Z,23.67
2023-03-18T17:16:26.569Z,24.15
2023-03-18T17:18:53.683Z,24.17
2023-03-18T17:21:20.636Z,23.30
2023-03-18T17:23:47.888Z,24.55
2023-03-18T17:26:15.888Z,24.10
2023-03-18T17:28:46.141Z,24.55
2023-03-18T17:31:13.592Z,27.42
2023-03-18T17:33:41.189Z,26.50
2023-03-18T17:36:08.756Z,26.02
2023-03-18T17:38:35.889Z,25.92
2023-03-18T17:41:11.610Z,25.17
2023-03-18T17:43:38.549Z,26.15
2023-03-18T17:46:06.226Z,27.20
2023-03-18T17:48:35.638Z,33.65
2023-03-18T17:51:16.345Z,37.10
2023-03-18T17:53:53.691Z,38.35
2023-03-18T17:56:20.980Z,30.58
2023-03-18T17:58:50.543Z,27.58
2023-03-18T18:01:22.539Z,25.48
2023-03-18T18:03:50.528Z,27.13
2023-03-18T18:06:20.875Z,26.65
2023-03-18T18:08:49.385Z,25.58
2023-03-18T18:11:27.705Z,26.45
2023-03-18T18:13:59.162Z,25.77
2023-03-18T18:16:26.479Z,26.05
2023-03-18T18:18:55.823Z,26.75
2023-03-18T18:21:26.060Z,26.40
2023-03-18T18:23:53.144Z,25.70
2023-03-18T18:26:22.187Z,26.85
2023-03-18T18:28:51.870Z,31.63
2023-03-18T18:31:24.091Z,27.83
2023-03-18T18:33:51.349Z,30.45
2023-03-18T18:36:18.440Z,30.17
2023-03-18T18:38:47.201Z,29.92
2023-03-18T18:41:17.400Z,28.95
2023-03-18T18:43:44.529Z,27.02
2023-03-18T18:46:15.102Z,26.35
2023-03-18T18:48:47.031Z,27.65
2023-03-18T18:51:21.828Z,26.85
2023-03-18T18:53:53.718Z,26.73
2023-03-18T18:56:36.792Z,25.55
2023-03-18T18:59:27.593Z,27.63
2023-03-18T19:01:56.437Z,25.98
2023-03-18T19:04:29.328Z,26.23
2023-03-18T19:07:03.811Z,28.17
2023-03-18T19:09:31.517Z,35.10
2023-03-18T19:11:58.598Z,36.50
2023-03-18T19:14:29.398Z,33.45
2023-03-18T19:17:03.639Z,37.20
2023-03-18T19:19:34.803Z,41.05
2023-03-18T19:22:04.188Z,38.05
2023-03-18T19:24:37.230Z,30.02
2023-03-18T19:27:09.953Z,26.70
2023-03-18T19:29:37.604Z,29.67
2023-03-18T19:32:06.443Z,24.92
2023-03-18T19:34:37.470Z,23.75
2023-03-18T19:37:06.024Z,24.60
2023-03-18T19:39:33.164Z,24.70
2023-03-18T19:42:00.422Z,26.33
2023-03-18T19:44:30.562Z,24.33
2023-03-18T19:47:01.653Z,24.33
2023-03-18T19:49:35.142Z,21.83
2023-03-18T19:52:03.058Z,23.58
2023-03-18T19:54:36.888Z,24.48
2023-03-18T19:57:17.460Z,23.27
2023-03-18T19:59:50.530Z,22.85
2023-03-18T20:02:22.193Z,24.15
2023-03-18T20:04:54.843Z,21.15
2023-03-18T20:07:28.454Z,18.48
2023-03-18T20:09:56.348Z,17.40
2023-03-18T20:12:34.835Z,14.23
2023-03-18T20:15:02.634Z,14.73
2023-03-18T20:17:34.406Z,13.90
2023-03-18T20:20:01.647Z,12.70
2023-03-18T20:22:42.270Z,12.85
2023-03-18T20:25:19.689Z,18.38
2023-03-18T20:27:46.910Z,20.20
2023-03-18T20:30:23.221Z,20.10
2023-03-18T20:32:50.915Z,18.52
2023-03-18T20:35:19.441Z,18.33
2023-03-18T20:37:46.980Z,18.48
2023-03-18T20:40:23.868Z,17.60
2023-03-18T20:42:52.734Z,18.13
2023-03-18T20:45:22.277Z,30.45
2023-03-18T20:47:49.891Z,21.30
2023-03-18T20:50:24.354Z,18.65
2023-03-18T20:52:52.447Z,17.17
2023-03-18T20:55:26.861Z,14.88
2023-03-18T20:57:54.594Z,14.40
2023-03-18T21:00:25.571Z,17.05
2023-03-18T21:02:54.533Z,17.90
2023-03-18T21:05:25.646Z,16.73
2023-03-18T21:07:53.342Z,16.00
2023-03-18T21:10:25.776Z,15.52
2023-03-18T21:12:53.130Z,16.05
2023-03-18T21:15:23.423Z,17.20
2023-03-18T21:17:50.960Z,15.32
2023-03-18T21:20:22.422Z,16.13
2023-03-18T21:25:26.365Z,19.15
2023-03-18T21:27:53.896Z,18.33
2023-03-18T21:30:22.864Z,17.58
2023-03-18T21:32:53.710Z,17.00
2023-03-18T21:35:23.182Z,10.30
2023-03-18T21:37:51.206Z,13.60
2023-03-18T21:40:22.005Z,16.33
2023-03-18T21:42:52.547Z,17.85
2023-03-18T21:45:22.889Z,16.30
2023-03-18T21:47:50.342Z,16.52
2023-03-18T21:50:22.884Z,16.90
2023-03-18T21:52:50.394Z,17.58
2023-03-18T21:55:20.012Z,16.92
2023-03-18T21:57:49.006Z,15.13
2023-03-18T22:00:20.466Z,14.93
2023-03-18T22:02:48.227Z,14.13
2023-03-18T22:05:21.893Z,15.30
2023-03-18T22:07:51.026Z,16.50
2023-03-18T22:10:23.357Z,17.65
2023-03-18T22:12:50.873Z,16.98
2023-03-18T22:15:24.038Z,15.48
2023-03-18T22:17:51.864Z,16.17
2023-03-18T22:20:18.989Z,16.88
2023-03-18T22:22:47.577Z,17.50
2023-03-18T22:25:33.117Z,16.05
2023-03-18T22:28:00.828Z,16.92
2023-03-18T22:30:30.982Z,16.90
2023-03-18T22:32:59.771Z,16.23
2023-03-18T22:35:29.023Z,15.85
2023-03-18T22:37:56.765Z,15.70
2023-03-18T22:40:31.904Z,15.48
2023-03-18T22:43:00.989Z,16.20
2023-03-18T22:45:35.754Z,15.77
2023-03-18T22:48:04.130Z,16.02
2023-03-18T22:50:33.981Z,14.27
2023-03-18T22:53:04.808Z,16.15
2023-03-18T22:55:36.529Z,16.70
2023-03-18T22:58:04.078Z,16.38
2023-03-18T23:00:39.078Z,17.55
2023-03-18T23:03:22.304Z,17.58
2023-03-18T23:05:52.483Z,18.50
2023-03-18T23:08:20.638Z,19.10
2023-03-18T23:10:51.648Z,19.33
2023-03-18T23:13:26.333Z,20.92
2023-03-18T23:15:53.873Z,19.35
2023-03-18T23:18:24.105Z,17.05
2023-03-18T23:20:52.102Z,16.77
2023-03-18T23:23:20.980Z,16.98
2023-03-18T23:25:48.638Z,19.40
2023-03-18T23:28:15.857Z,19.42
2023-03-18T23:30:47.845Z,31.95
2023-03-18T23:35:42.924Z,28.75
2023-03-18T23:38:10.411Z,26.77
2023-03-18T23:40:40.620Z,26.17
2023-03-18T23:43:09.142Z,24.05
2023-03-18T23:45:39.687Z,24.40
2023-03-18T23:48:07.262Z,24.30
2023-03-18T23:50:34.759Z,23.92
2023-03-18T23:53:03.354Z,23.08
2023-03-18T23:55:45.812Z,22.42
2023-03-18T23:58:13.132Z,22.42
